createdAt,value
2018-02-14T00:01:31.631Z,6.45
2018-02-14T00:04:01.111Z,5.90
2018-02-14T00:06:30.615Z,5.75
2018-02-14T00:09:00.122Z,5.50
2018-02-14T00:11:29.594Z,5.72
2018-02-14T00:13:59.119Z,5.62
2018-02-14T00:16:28.588Z,6.30
2018-02-14T00:18:58.087Z,7.05
2018-02-14T00:21:27.551Z,6.28
2018-02-14T00:23:57.048Z,5.93
2018-02-14T00:26:26.535Z,5.95
2018-02-14T00:28:56.044Z,5.95
2018-02-14T00:31:25.521Z,5.90
2018-02-14T00:33:55.015Z,5.70
2018-02-14T00:36:24.468Z,6.07
2018-02-14T00:38:53.971Z,7.28
2018-02-14T00:41:23.444Z,5.50
2018-02-14T00:43:52.948Z,6.32
2018-02-14T00:46:22.414Z,5.90
2018-02-14T00:48:51.926Z,6.50
2018-02-14T00:51:21.439Z,6.45
2018-02-14T00:53:50.980Z,6.00
2018-02-14T00:56:20.480Z,6.25
2018-02-14T00:58:49.973Z,5.22
2018-02-14T01:01:19.474Z,5.97
2018-02-14T01:03:48.931Z,6.03
2018-02-14T01:06:18.421Z,5.62
2018-02-14T01:08:47.924Z,5.75
2018-02-14T01:11:17.636Z,6.62
2018-02-14T01:13:47.115Z,5.55
2018-02-14T01:16:16.640Z,5.72
2018-02-14T01:18:48.057Z,6.10
2018-02-14T01:21:17.557Z,5.50
2018-02-14T01:23:47.034Z,5.93
2018-02-14T01:26:16.541Z,6.30
2018-02-14T01:28:46.001Z,5.82
2018-02-14T01:31:15.521Z,6.07
2018-02-14T01:33:44.995Z,7.53
2018-02-14T01:36:14.488Z,6.25
2018-02-14T01:38:44.003Z,6.25
2018-02-14T01:41:13.530Z,6.03
2018-02-14T01:43:42.999Z,6.10
2018-02-14T01:46:12.505Z,5.62
2018-02-14T01:48:41.997Z,6.50
2018-02-14T01:51:11.470Z,7.00
2018-02-14T01:53:40.998Z,6.20
2018-02-14T01:56:10.478Z,6.00
2018-02-14T01:58:40.010Z,6.28
2018-02-14T02:01:09.493Z,6.37
2018-02-14T02:03:38.979Z,6.80
2018-02-14T02:06:08.452Z,6.45
2018-02-14T02:08:37.962Z,6.45
2018-02-14T02:11:07.448Z,5.78
2018-02-14T02:13:36.955Z,6.60
2018-02-14T02:16:06.415Z,6.40
2018-02-14T02:18:35.943Z,6.82
2018-02-14T02:21:05.422Z,6.40
2018-02-14T02:23:34.928Z,6.53
2018-02-14T02:26:04.419Z,6.82
2018-02-14T02:28:33.918Z,6.60
2018-02-14T02:31:03.585Z,6.55
2018-02-14T02:33:33.091Z,5.75
2018-02-14T02:36:02.556Z,6.97
2018-02-14T02:38:32.065Z,6.43
2018-02-14T02:41:01.534Z,6.82
2018-02-14T02:43:31.036Z,5.78
2018-02-14T02:46:00.510Z,6.35
2018-02-14T02:48:30.017Z,6.37
2018-02-14T02:50:59.477Z,6.72
2018-02-14T02:53:28.984Z,6.60
2018-02-14T02:55:58.456Z,6.12
2018-02-14T02:58:27.958Z,6.37
2018-02-14T03:00:57.453Z,7.80
2018-02-14T03:03:26.919Z,6.50
2018-02-14T03:05:56.429Z,7.45
2018-02-14T03:08:25.913Z,7.05
2018-02-14T03:10:55.425Z,6.87
2018-02-14T03:13:24.953Z,6.80
2018-02-14T03:15:54.424Z,6.85
2018-02-14T03:18:23.949Z,7.47
2018-02-14T03:20:53.507Z,7.30
2018-02-14T03:23:23.017Z,7.28
2018-02-14T03:25:52.491Z,6.72
2018-02-14T03:28:22.000Z,7.10
2018-02-14T03:30:51.526Z,6.85
2018-02-14T03:33:21.013Z,6.43
2018-02-14T03:35:50.503Z,6.32
2018-02-14T03:38:20.156Z,6.57
2018-02-14T03:40:49.624Z,6.37
2018-02-14T03:43:19.192Z,6.93
2018-02-14T03:45:48.642Z,7.22
2018-02-14T03:48:18.137Z,7.93
2018-02-14T03:50:47.602Z,7.68
2018-02-14T03:53:17.129Z,6.65
2018-02-14T03:55:46.613Z,7.60
2018-02-14T03:58:16.102Z,6.93
2018-02-14T04:00:45.548Z,7.25
2018-02-14T04:03:15.061Z,7.53
2018-02-14T04:05:44.553Z,7.03
2018-02-14T04:08:14.067Z,7.37
2018-02-14T04:10:43.552Z,6.93
2018-02-14T04:13:13.195Z,7.12
2018-02-14T04:15:42.706Z,6.50
2018-02-14T04:18:12.175Z,7.07
2018-02-14T04:20:41.880Z,7.32
2018-02-14T04:23:11.340Z,6.70
2018-02-14T04:25:40.903Z,8.05
2018-02-14T04:28:25.245Z,8.02
2018-02-14T04:30:54.771Z,6.80
2018-02-14T04:33:24.259Z,7.70
2018-02-14T04:35:53.768Z,7.22
2018-02-14T04:38:23.258Z,7.35
2018-02-14T04:40:52.763Z,6.60
2018-02-14T04:43:22.261Z,8.18
2018-02-14T04:45:51.738Z,7.10
2018-02-14T04:48:21.261Z,7.43
2018-02-14T04:50:50.718Z,6.90
2018-02-14T04:53:20.219Z,6.53
2018-02-14T04:55:49.733Z,7.90
2018-02-14T04:58:19.259Z,7.40
2018-02-14T05:00:48.716Z,7.15
2018-02-14T05:03:18.221Z,6.57
2018-02-14T05:05:47.705Z,7.12
2018-02-14T05:08:17.205Z,8.55
2018-02-14T05:10:46.689Z,6.37
2018-02-14T05:13:16.205Z,7.30
2018-02-14T05:15:45.678Z,6.55
2018-02-14T05:18:15.213Z,6.45
2018-02-14T05:20:44.738Z,8.13
2018-02-14T05:23:14.252Z,8.50
2018-02-14T05:25:43.706Z,7.57
2018-02-14T05:28:13.212Z,7.45
2018-02-14T05:30:42.707Z,7.65
2018-02-14T05:33:12.218Z,7.47
2018-02-14T05:35:41.913Z,7.72
2018-02-14T05:38:11.400Z,7.32
2018-02-14T05:40:40.901Z,6.62
2018-02-14T05:43:10.388Z,6.28
2018-02-14T05:45:39.922Z,7.50
2018-02-14T05:48:09.390Z,7.78
2018-02-14T05:50:38.892Z,7.05
2018-02-14T05:53:08.362Z,6.80
2018-02-14T05:55:37.858Z,7.53
2018-02-14T05:58:07.333Z,7.15
2018-02-14T06:00:36.830Z,6.97
2018-02-14T06:03:06.325Z,7.90
2018-02-14T06:05:35.840Z,8.15
2018-02-14T06:08:05.328Z,6.97
2018-02-14T06:10:34.807Z,7.25
2018-02-14T06:15:40.110Z,8.30
2018-02-14T06:18:09.590Z,7.85
2018-02-14T06:20:39.091Z,6.97
2018-02-14T06:23:08.598Z,7.25
2018-02-14T06:25:38.093Z,8.00
2018-02-14T06:28:07.571Z,7.78
2018-02-14T06:30:37.056Z,7.05
2018-02-14T06:33:06.547Z,8.27
2018-02-14T06:35:36.060Z,7.15
2018-02-14T06:38:05.543Z,8.25
2018-02-14T06:40:35.029Z,7.28
2018-02-14T06:43:04.492Z,8.23
2018-02-14T06:45:34.001Z,7.78
2018-02-14T06:48:03.484Z,7.80
2018-02-14T06:50:32.940Z,6.43
2018-02-14T06:53:02.451Z,8.25
2018-02-14T06:55:31.948Z,7.60
2018-02-14T06:58:01.437Z,7.62
2018-02-14T07:00:30.945Z,7.47
2018-02-14T07:03:00.434Z,7.53
2018-02-14T07:05:30.030Z,8.25
2018-02-14T07:07:59.526Z,7.30
2018-02-14T07:10:29.050Z,8.95
2018-02-14T07:12:58.541Z,7.45
2018-02-14T07:15:28.054Z,8.57
2018-02-14T07:17:57.550Z,7.65
2018-02-14T07:20:27.065Z,8.15
2018-02-14T07:22:56.572Z,7.93
2018-02-14T07:25:26.058Z,8.40
2018-02-14T07:27:55.526Z,8.20
2018-02-14T07:30:25.047Z,8.40
2018-02-14T07:32:54.561Z,7.90
2018-02-14T07:35:24.088Z,7.60
2018-02-14T07:37:53.538Z,7.87
2018-02-14T07:40:23.007Z,7.97
2018-02-14T07:42:52.537Z,8.18
2018-02-14T07:45:22.066Z,7.43
2018-02-14T07:47:51.533Z,8.45
2018-02-14T07:50:21.015Z,8.77
2018-02-14T07:52:50.501Z,10.05
2018-02-14T07:55:19.987Z,8.80
2018-02-14T07:57:49.464Z,8.65
2018-02-14T08:00:18.966Z,8.50
2018-02-14T08:02:48.428Z,8.07
2018-02-14T08:05:17.954Z,8.20
2018-02-14T08:07:47.437Z,8.85
2018-02-14T08:10:16.973Z,7.45
2018-02-14T08:12:46.419Z,8.50
2018-02-14T08:15:15.938Z,8.00
2018-02-14T08:17:45.680Z,8.90
2018-02-14T08:20:15.209Z,7.93
2018-02-14T08:22:44.732Z,9.10
2018-02-14T08:25:14.225Z,8.10
2018-02-14T08:27:43.722Z,8.23
2018-02-14T08:30:13.221Z,9.23
2018-02-14T08:32:42.734Z,8.68
2018-02-14T08:35:12.317Z,9.52
2018-02-14T08:37:41.823Z,9.02
2018-02-14T08:40:11.631Z,8.65
2018-02-14T08:42:41.093Z,7.80
2018-02-14T08:45:10.955Z,9.30
2018-02-14T08:47:41.260Z,8.82
2018-02-14T08:50:10.927Z,8.48
2018-02-14T08:52:40.434Z,8.65
2018-02-14T08:55:10.322Z,9.20
2018-02-14T08:57:39.846Z,7.55
2018-02-14T09:00:09.885Z,9.25
2018-02-14T09:02:39.411Z,9.05
2018-02-14T09:05:08.974Z,8.20
2018-02-14T09:07:38.459Z,7.90
2018-02-14T09:10:08.296Z,8.60
2018-02-14T09:12:37.807Z,7.47
2018-02-14T09:15:07.573Z,9.00
2018-02-14T09:17:37.127Z,8.85
2018-02-14T09:20:06.948Z,8.32
2018-02-14T09:22:36.512Z,8.55
2018-02-14T09:25:06.515Z,8.98
2018-02-14T09:27:36.063Z,8.77
2018-02-14T09:30:05.750Z,9.05
2018-02-14T09:32:36.228Z,8.02
2018-02-14T09:35:06.043Z,7.90
2018-02-14T09:37:35.610Z,9.45
2018-02-14T09:40:05.312Z,8.10
2018-02-14T09:42:34.871Z,8.45
2018-02-14T09:45:04.593Z,8.15
2018-02-14T09:47:34.118Z,9.38
2018-02-14T09:50:03.758Z,9.70
2018-02-14T09:52:33.274Z,9.68
2018-02-14T09:55:02.935Z,9.20
2018-02-14T09:57:32.480Z,8.32
2018-02-14T10:00:01.976Z,8.13
2018-02-14T10:02:31.497Z,8.45
2018-02-14T10:05:00.982Z,8.40
2018-02-14T10:07:30.505Z,8.85
2018-02-14T10:09:59.966Z,9.32
2018-02-14T10:15:05.599Z,8.77
2018-02-14T10:17:35.146Z,9.25
2018-02-14T10:20:04.870Z,8.52
2018-02-14T10:22:34.394Z,8.95
2018-02-14T10:25:04.207Z,8.38
2018-02-14T10:27:33.817Z,7.60
2018-02-14T10:30:03.595Z,8.90
2018-02-14T10:32:33.122Z,8.38
2018-02-14T10:35:02.860Z,7.87
2018-02-14T10:37:32.451Z,8.57
2018-02-14T10:40:01.916Z,8.95
2018-02-14T10:42:31.468Z,7.97
2018-02-14T10:45:00.952Z,7.90
2018-02-14T10:47:30.472Z,8.82
2018-02-14T10:49:59.982Z,7.90
2018-02-14T10:52:29.451Z,9.05
2018-02-14T10:54:58.958Z,8.30
2018-02-14T10:57:28.434Z,7.90
2018-02-14T10:59:57.977Z,8.55
2018-02-14T11:02:27.416Z,7.55
2018-02-14T11:05:02.895Z,8.90
2018-02-14T11:07:32.589Z,7.53
2018-02-14T11:10:02.156Z,8.80
2018-02-14T11:12:31.688Z,7.93
2018-02-14T11:15:01.165Z,8.20
2018-02-14T11:17:30.676Z,6.85
2018-02-14T11:20:00.467Z,7.40
2018-02-14T11:22:29.991Z,6.70
2018-02-14T11:24:59.442Z,7.75
2018-02-14T11:27:28.957Z,8.23
2018-02-14T11:29:58.479Z,7.35
2018-02-14T11:32:27.987Z,7.32
2018-02-14T11:34:57.475Z,7.70
2018-02-14T11:37:26.982Z,7.25
2018-02-14T11:39:56.501Z,7.75
2018-02-14T11:42:25.984Z,7.32
2018-02-14T11:44:55.494Z,7.10
2018-02-14T11:47:24.981Z,7.00
2018-02-14T11:49:54.481Z,7.05
2018-02-14T11:52:23.960Z,7.47
2018-02-14T11:54:53.491Z,7.03
2018-02-14T11:57:22.970Z,6.90
2018-02-14T11:59:52.467Z,7.50
2018-02-14T12:02:21.987Z,7.78
2018-02-14T12:04:51.448Z,7.40
2018-02-14T12:07:20.962Z,6.80
2018-02-14T12:09:50.468Z,7.37
2018-02-14T12:12:19.997Z,7.03
2018-02-14T12:14:49.514Z,7.12
2018-02-14T12:17:18.977Z,8.05
2018-02-14T12:19:48.501Z,7.03
2018-02-14T12:22:17.967Z,8.10
2018-02-14T12:24:47.468Z,7.22
2018-02-14T12:27:16.955Z,7.28
2018-02-14T12:29:46.618Z,7.47
2018-02-14T12:32:16.106Z,8.00
2018-02-14T12:34:45.629Z,7.50
2018-02-14T12:37:15.152Z,7.90
2018-02-14T12:39:44.659Z,8.23
2018-02-14T12:42:14.139Z,8.13
2018-02-14T12:44:43.689Z,7.90
2018-02-14T12:47:13.128Z,7.03
2018-02-14T12:49:42.652Z,7.75
2018-02-14T12:52:12.124Z,7.40
2018-02-14T12:54:41.629Z,7.18
2018-02-14T12:57:11.070Z,7.03
2018-02-14T12:59:40.593Z,8.30
2018-02-14T13:02:10.072Z,7.28
2018-02-14T13:04:39.564Z,7.85
2018-02-14T13:07:09.084Z,7.85
2018-02-14T13:09:38.582Z,8.70
2018-02-14T13:12:08.101Z,8.23
2018-02-14T13:14:37.622Z,8.27
2018-02-14T13:17:07.119Z,8.90
2018-02-14T13:19:36.597Z,7.30
2018-02-14T13:22:06.187Z,7.00
2018-02-14T13:24:35.702Z,6.72
2018-02-14T13:27:05.163Z,7.22
2018-02-14T13:29:34.695Z,6.95
2018-02-14T13:32:04.161Z,6.55
2018-02-14T13:34:33.665Z,7.32
2018-02-14T13:37:03.156Z,7.03
2018-02-14T13:39:32.663Z,6.20
2018-02-14T13:42:02.173Z,6.05
2018-02-14T13:44:31.670Z,7.12
2018-02-14T13:47:01.150Z,7.43
2018-02-14T13:49:30.782Z,6.70
2018-02-14T13:52:00.288Z,6.62
2018-02-14T13:54:29.763Z,5.72
2018-02-14T13:56:59.213Z,6.53
2018-02-14T13:59:28.741Z,6.78
2018-02-14T14:01:58.248Z,7.25
2018-02-14T14:04:27.744Z,7.05
2018-02-14T14:06:57.211Z,6.85
2018-02-14T14:09:26.701Z,7.70
2018-02-14T14:11:56.397Z,7.62
2018-02-14T14:14:25.922Z,7.25
2018-02-14T14:16:55.399Z,8.10
2018-02-14T14:19:24.935Z,7.90
2018-02-14T14:21:54.415Z,7.10
2018-02-14T14:24:23.938Z,7.37
2018-02-14T14:26:53.408Z,6.95
2018-02-14T14:29:22.938Z,6.90
2018-02-14T14:31:52.391Z,8.20
2018-02-14T14:34:21.918Z,7.60
2018-02-14T14:36:51.427Z,7.32
2018-02-14T14:39:20.929Z,7.20
2018-02-14T14:41:50.585Z,7.93
2018-02-14T14:44:20.060Z,8.00
2018-02-14T14:46:49.544Z,8.25
2018-02-14T14:49:19.021Z,8.45
2018-02-14T14:51:48.516Z,8.35
2018-02-14T14:54:18.023Z,7.37
2018-02-14T14:56:47.546Z,8.35
2018-02-14T14:59:17.151Z,7.87
2018-02-14T15:01:46.671Z,7.47
2018-02-14T15:04:16.159Z,8.48
2018-02-14T15:06:45.817Z,7.72
2018-02-14T15:09:15.322Z,7.78
2018-02-14T15:11:44.816Z,8.45
2018-02-14T15:14:14.329Z,8.38
2018-02-14T15:16:43.798Z,8.02
2018-02-14T15:19:13.305Z,8.02
2018-02-14T15:21:42.768Z,8.73
2018-02-14T15:24:12.286Z,9.05
2018-02-14T15:26:41.773Z,8.27
2018-02-14T15:29:11.252Z,8.32
2018-02-14T15:31:40.734Z,9.05
2018-02-14T15:34:10.331Z,9.65
2018-02-14T15:36:39.803Z,7.80
2018-02-14T15:39:09.353Z,8.52
2018-02-14T15:41:38.906Z,8.75
2018-02-14T15:44:08.406Z,9.52
2018-02-14T15:46:37.895Z,8.55
2018-02-14T15:49:07.425Z,8.27
2018-02-14T15:51:36.926Z,9.20
2018-02-14T15:54:06.448Z,8.88
2018-02-14T15:56:35.931Z,8.10
2018-02-14T15:59:05.415Z,8.73
2018-02-14T16:01:34.965Z,8.07
2018-02-14T16:04:04.429Z,9.68
2018-02-14T16:06:33.934Z,9.80
2018-02-14T16:09:03.394Z,11.32
2018-02-14T16:11:32.899Z,9.07
2018-02-14T16:14:02.414Z,9.32
2018-02-14T16:16:31.938Z,8.93
2018-02-14T16:19:01.437Z,8.57
2018-02-14T16:21:30.946Z,8.50
2018-02-14T16:24:00.446Z,9.00
2018-02-14T16:26:29.930Z,8.98
2018-02-14T16:28:59.459Z,9.43
2018-02-14T16:31:28.936Z,8.50
2018-02-14T16:33:58.473Z,8.07
2018-02-14T16:36:27.989Z,7.70
2018-02-14T16:38:57.458Z,7.45
2018-02-14T16:41:27.009Z,9.32
2018-02-14T16:43:56.510Z,9.02
2018-02-14T16:46:26.035Z,8.57
2018-02-14T16:48:55.501Z,7.65
2018-02-14T16:51:25.053Z,8.20
2018-02-14T16:53:54.562Z,8.20
2018-02-14T16:56:24.088Z,8.80
2018-02-14T16:58:53.599Z,8.85
2018-02-14T17:01:23.104Z,7.97
2018-02-14T17:03:52.608Z,7.60
2018-02-14T17:06:22.094Z,7.75
2018-02-14T17:08:51.596Z,8.48
2018-02-14T17:11:21.085Z,8.63
2018-02-14T17:13:50.596Z,8.25
2018-02-14T17:16:20.081Z,8.38
2018-02-14T17:18:49.548Z,9.60
2018-02-14T17:21:19.061Z,11.12
2018-02-14T17:23:48.528Z,11.10
2018-02-14T17:26:18.090Z,8.93
2018-02-14T17:28:47.583Z,10.07
2018-02-14T17:31:17.180Z,9.13
2018-02-14T17:33:46.708Z,9.13
2018-02-14T17:36:16.682Z,9.30
2018-02-14T17:38:46.184Z,8.48
2018-02-14T17:41:15.734Z,9.95
2018-02-14T17:43:45.243Z,8.95
2018-02-14T17:46:14.750Z,9.07
2018-02-14T17:48:44.221Z,9.05
2018-02-14T17:51:13.772Z,9.70
2018-02-14T17:53:43.293Z,9.60
2018-02-14T17:56:12.814Z,8.82
2018-02-14T17:58:42.358Z,9.35
2018-02-14T18:01:11.856Z,8.75
2018-02-14T18:03:41.377Z,9.05
2018-02-14T18:06:10.844Z,10.00
2018-02-14T18:08:40.376Z,10.15
2018-02-14T18:11:09.876Z,9.23
2018-02-14T18:13:39.604Z,9.23
2018-02-14T18:16:12.067Z,11.30
2018-02-14T18:18:41.571Z,9.13
2018-02-14T18:21:11.083Z,9.27
2018-02-14T18:23:40.542Z,9.95
2018-02-14T18:26:10.071Z,9.77
2018-02-14T18:28:39.539Z,10.43
2018-02-14T18:31:09.060Z,9.90
2018-02-14T18:33:38.532Z,9.98
2018-02-14T18:36:08.044Z,10.55
2018-02-14T18:38:37.537Z,9.48
2018-02-14T18:41:07.081Z,9.73
2018-02-14T18:43:36.622Z,10.55
2018-02-14T18:46:06.101Z,10.52
2018-02-14T18:48:35.620Z,10.50
2018-02-14T18:51:05.138Z,10.07
2018-02-14T18:53:34.667Z,9.85
2018-02-14T18:56:04.153Z,9.98
2018-02-14T18:58:33.677Z,10.27
2018-02-14T19:01:03.168Z,9.55
2018-02-14T19:03:32.707Z,11.05
2018-02-14T19:06:02.224Z,10.15
2018-02-14T19:08:31.719Z,10.48
2018-02-14T19:11:01.212Z,11.48
2018-02-14T19:13:30.732Z,10.32
2018-02-14T19:16:00.196Z,12.30
2018-02-14T19:18:29.706Z,10.20
2018-02-14T19:20:59.197Z,10.55
2018-02-14T19:23:28.747Z,10.35
2018-02-14T19:25:58.302Z,10.95
2018-02-14T19:28:27.793Z,10.13
2018-02-14T19:30:57.326Z,10.18
2018-02-14T19:33:26.855Z,11.30
2018-02-14T19:35:56.396Z,10.52
2018-02-14T19:38:25.917Z,11.68
2018-02-14T19:40:55.452Z,10.82
2018-02-14T19:43:24.938Z,10.18
2018-02-14T19:45:54.484Z,11.02
2018-02-14T19:48:23.978Z,10.93
2018-02-14T19:50:53.706Z,10.55
2018-02-14T19:53:23.217Z,11.02
2018-02-14T19:55:52.730Z,12.02
2018-02-14T19:58:22.259Z,10.95
2018-02-14T20:00:51.819Z,11.35
2018-02-14T20:03:21.313Z,11.20
2018-02-14T20:05:50.856Z,11.10
2018-02-14T20:08:20.405Z,10.45
2018-02-14T20:10:49.961Z,11.23
2018-02-14T20:13:19.525Z,9.05
2018-02-14T20:15:49.034Z,10.95
2018-02-14T20:18:18.542Z,11.75
2018-02-14T20:20:48.052Z,10.90
2018-02-14T20:23:17.588Z,11.00
2018-02-14T20:25:47.118Z,10.07
2018-02-14T20:28:16.639Z,11.18
2018-02-14T20:30:46.155Z,11.30
2018-02-14T20:33:15.750Z,10.88
2018-02-14T20:35:45.297Z,10.93
2018-02-14T20:38:14.785Z,11.38
2018-02-14T20:40:44.344Z,11.18
2018-02-14T20:43:13.922Z,10.43
2018-02-14T20:45:43.478Z,10.90
2018-02-14T20:48:12.936Z,10.75
2018-02-14T20:50:42.488Z,12.13
2018-02-14T20:53:11.993Z,10.52
2018-02-14T20:55:41.540Z,10.75
2018-02-14T20:58:11.045Z,11.68
2018-02-14T21:00:40.545Z,11.05
2018-02-14T21:03:10.671Z,11.02
2018-02-14T21:05:40.207Z,10.07
2018-02-14T21:08:09.727Z,10.80
2018-02-14T21:10:39.490Z,10.80
2018-02-14T21:13:09.042Z,10.55
2018-02-14T21:15:38.537Z,11.07
2018-02-14T21:18:08.008Z,11.05
2018-02-14T21:20:37.624Z,10.38
2018-02-14T21:23:07.177Z,9.80
2018-02-14T21:25:36.684Z,10.90
2018-02-14T21:28:06.202Z,10.40
2018-02-14T21:30:35.766Z,10.23
2018-02-14T21:33:05.253Z,11.88
2018-02-14T21:35:34.751Z,11.55
2018-02-14T21:38:04.222Z,10.25
2018-02-14T21:40:33.746Z,11.63
2018-02-14T21:43:03.234Z,11.30
2018-02-14T21:45:32.745Z,10.75
2018-02-14T21:48:02.250Z,10.90
2018-02-14T21:50:31.754Z,10.80
2018-02-14T21:53:01.344Z,11.85
2018-02-14T21:55:30.825Z,12.23
2018-02-14T21:58:00.348Z,10.07
2018-02-14T22:00:29.861Z,11.80
2018-02-14T22:02:59.391Z,11.50
2018-02-14T22:05:28.864Z,10.73
2018-02-14T22:07:58.385Z,10.80
2018-02-14T22:10:27.859Z,10.55
2018-02-14T22:12:57.381Z,12.15
2018-02-14T22:15:26.888Z,10.50
2018-02-14T22:17:56.440Z,10.93
2018-02-14T22:20:26.037Z,11.10
2018-02-14T22:22:55.523Z,10.85
2018-02-14T22:25:25.018Z,11.32
2018-02-14T22:27:54.506Z,11.20
2018-02-14T22:30:24.014Z,11.20
2018-02-14T22:32:53.521Z,10.70
2018-02-14T22:35:23.042Z,10.63
2018-02-14T22:37:52.513Z,10.63
2018-02-14T22:40:22.105Z,12.65
2018-02-14T22:42:51.594Z,11.23
2018-02-14T22:45:21.098Z,11.63
2018-02-14T22:47:50.591Z,11.85
2018-02-14T22:50:20.096Z,12.30
2018-02-14T22:52:49.605Z,11.60
2018-02-14T22:55:19.081Z,11.90
2018-02-14T22:57:48.624Z,12.88
2018-02-14T23:00:20.859Z,11.90
2018-02-14T23:02:50.378Z,11.65
2018-02-14T23:05:19.846Z,13.18
2018-02-14T23:07:49.390Z,11.20
2018-02-14T23:10:18.877Z,12.48
2018-02-14T23:12:48.378Z,11.40
2018-02-14T23:15:17.913Z,12.95
2018-02-14T23:17:47.408Z,11.75
2018-02-14T23:20:16.934Z,12.07
2018-02-14T23:22:46.386Z,11.75
2018-02-14T23:25:15.935Z,12.25
2018-02-14T23:27:45.419Z,12.95
2018-02-14T23:30:14.923Z,12.90
2018-02-14T23:32:44.397Z,13.48
2018-02-14T23:35:13.927Z,12.50
2018-02-14T23:37:43.610Z,12.88
2018-02-14T23:40:13.155Z,11.93
2018-02-14T23:42:42.623Z,12.65
2018-02-14T23:45:12.332Z,11.65
2018-02-14T23:47:41.804Z,12.32
2018-02-14T23:50:11.654Z,12.88
2018-02-14T23:52:41.141Z,11.98
2018-02-14T23:55:10.980Z,13.65
2018-02-14T23:57:40.500Z,12.23
